Time;durP1;ratioP1;P1;durP2;ratioP2;P2;SDS_P1;SDS_P2;PMS_P1;PMS_P2;Temp;Humidity;BMP_temperature;BMP_pressure;BME280_temperature;BME280_humidity;BME280_pressure;Samples;Min_cycle;Max_cycle;Signal;HPM_P1;HPM_P2
2021/01/17 00:02:01;;;;;;;0.10;0.10;;;;;;;4.26;100.00;100020.56;4968401;28;20048;-78
2021/01/17 00:05:13;;;;;;;0.10;0.00;;;;;;;4.30;100.00;100032.28;4965468;28;20245;-77
2021/01/17 00:08:17;;;;;;;0.10;0.10;;;;;;;4.30;100.00;100024.00;4967058;28;20250;-77
2021/01/17 00:11:21;;;;;;;0.10;0.10;;;;;;;4.35;100.00;100019.97;4965222;28;20045;-77
2021/01/17 00:14:25;;;;;;;0.10;0.10;;;;;;;4.30;100.00;100032.28;4967621;28;20073;-77
2021/01/17 00:17:28;;;;;;;0.10;0.10;;;;;;;4.30;100.00;100029.50;4966862;28;20275;-79
2021/01/17 00:20:32;;;;;;;0.10;0.00;;;;;;;4.29;100.00;100030.72;4954649;28;20048;-79
2021/01/17 00:23:37;;;;;;;0.10;0.00;;;;;;;4.23;100.00;100034.41;4970540;28;20077;-79
2021/01/17 00:26:40;;;;;;;0.10;0.10;;;;;;;4.20;100.00;100038.78;4971940;28;20053;-77
2021/01/17 00:29:44;;;;;;;0.10;0.10;;;;;;;4.21;100.00;100040.34;4972679;28;20053;-79
2021/01/17 00:32:49;;;;;;;0.10;0.10;;;;;;;4.20;100.00;100032.53;4973124;28;20064;-78
2021/01/17 00:35:52;;;;;;;0.10;0.10;;;;;;;4.17;100.00;100038.88;4968876;28;21094;-79
2021/01/17 00:38:56;;;;;;;0.10;0.00;;;;;;;4.17;100.00;100034.16;4970588;28;20057;-77
2021/01/17 00:42:01;;;;;;;0.10;0.10;;;;;;;4.16;100.00;100029.81;4970376;28;20279;-79
2021/01/17 00:45:06;;;;;;;0.10;0.10;;;;;;;4.12;100.00;100026.38;4969002;28;20377;-77
2021/01/17 00:48:10;;;;;;;0.10;0.03;;;;;;;4.14;100.00;100018.44;4974518;28;20751;-77
2021/01/17 00:51:13;;;;;;;0.10;0.10;;;;;;;4.10;100.00;100023.28;4972209;28;20298;-79
2021/01/17 00:54:17;;;;;;;0.10;0.10;;;;;;;4.12;100.00;100026.38;4972679;28;20978;-81
2021/01/17 00:57:21;;;;;;;0.10;0.10;;;;;;;4.15;100.00;100022.00;4968456;28;20333;-78
2021/01/17 01:00:25;;;;;;;0.10;0.10;;;;;;;4.12;100.00;100022.84;4972985;28;20271;-78
2021/01/17 01:03:29;;;;;;;0.10;0.10;;;;;;;4.11;100.00;100019.31;4973125;28;20076;-79
2021/01/17 01:06:34;;;;;;;0.10;0.10;;;;;;;4.09;100.00;100021.72;4971479;28;20422;-79
2021/01/17 01:09:38;;;;;;;0.10;0.10;;;;;;;4.11;100.00;100018.53;4971078;28;20065;-79
2021/01/17 01:12:42;;;;;;;0.00;0.00;;;;;;;4.13;100.00;100025.19;4971336;28;20175;-80
2021/01/17 01:15:46;;;;;;;0.10;0.10;;;;;;;4.14;100.00;100018.44;4972964;28;20381;-79
2021/01/17 01:18:50;;;;;;;0.10;0.10;;;;;;;4.14;100.00;100017.66;4972326;28;21065;-80
2021/01/17 01:21:54;;;;;;;0.10;0.10;;;;;;;4.14;100.00;100012.94;4970290;28;20049;-80
2021/01/17 01:24:57;;;;;;;0.13;0.13;;;;;;;4.15;100.00;100014.50;4970000;28;20072;-80
2021/01/17 01:28:01;;;;;;;0.10;0.10;;;;;;;4.13;100.00;100014.16;4969930;28;20621;-80
2021/01/17 01:31:05;;;;;;;0.10;0.10;;;;;;;4.14;100.00;100018.44;4971789;28;20252;-79
2021/01/17 01:34:09;;;;;;;0.10;0.10;;;;;;;4.15;100.00;100011.75;4970782;28;20049;-79
2021/01/17 01:37:13;;;;;;;0.10;0.10;;;;;;;4.12;100.00;100004.31;4969628;28;20120;-79
2021/01/17 01:40:17;;;;;;;0.10;0.10;;;;;;;4.11;100.00;100002.78;4970944;28;21029;-79
2021/01/17 01:43:22;;;;;;;0.00;0.00;;;;;;;4.16;100.00;100020.81;4968778;28;20630;-79
2021/01/17 01:46:28;;;;;;;0.10;0.10;;;;;;;4.18;100.00;100016.38;4965267;28;20073;-79
2021/01/17 01:49:32;;;;;;;0.00;0.00;;;;;;;4.20;100.00;100019.50;4969120;28;20049;-79
2021/01/17 01:52:36;;;;;;;0.10;0.10;;;;;;;4.21;100.00;100023.03;4971862;28;20072;-80
2021/01/17 01:55:42;;;;;;;0.10;0.10;;;;;;;4.22;100.00;100033.63;4957861;28;20619;-78
2021/01/17 01:58:46;;;;;;;0.10;0.10;;;;;;;4.22;100.00;100046.66;4959280;28;20191;-78
2021/01/17 02:01:50;;;;;;;0.10;0.10;;;;;;;4.20;100.00;100044.28;4971022;28;20053;-80
2021/01/17 02:04:54;;;;;;;0.10;0.10;;;;;;;4.22;100.00;100052.16;4957656;28;20064;-81
2021/01/17 02:08:22;;;;;;;0.10;0.00;;;;;;;4.27;100.00;100054.38;4957642;28;20774;-80
2021/01/17 02:11:55;;;;;;;0.10;0.10;;;;;;;4.28;100.00;100056.72;4967797;28;20053;-79
2021/01/17 02:15:06;;;;;;;0.10;0.00;;;;;;;4.25;100.00;100063.09;4957846;28;20684;-78
2021/01/17 02:18:12;;;;;;;0.10;0.10;;;;;;;4.16;100.00;100065.66;4971567;28;20585;-78
2021/01/17 02:21:16;;;;;;;0.10;0.08;;;;;;;4.06;100.00;100082.41;4957525;28;21111;-78
2021/01/17 02:24:25;;;;;;;0.10;0.10;;;;;;;3.94;100.00;100086.63;4969904;28;20509;-78
2021/01/17 02:27:30;;;;;;;0.10;0.10;;;;;;;3.76;100.00;100091.69;4970273;28;20157;-79
2021/01/17 02:30:38;;;;;;;0.10;0.10;;;;;;;3.63;100.00;100093.53;4955541;28;20258;-81
2021/01/17 02:33:45;;;;;;;0.10;0.10;;;;;;;3.52;100.00;100099.22;4963665;28;20418;-81
2021/01/17 02:37:14;;;;;;;0.10;0.10;;;;;;;3.43;100.00;100106.47;4950470;28;21106;-79
2021/01/17 02:40:39;;;;;;;0.10;0.10;;;;;;;3.36;100.00;100110.13;4961625;28;20553;-79
2021/01/17 02:43:45;;;;;;;0.10;0.00;;;;;;;3.24;100.00;100102.50;4953603;28;21138;-79
2021/01/17 02:46:49;;;;;;;0.10;0.10;;;;;;;3.19;100.00;100107.69;4967896;28;20061;-79
2021/01/17 02:49:53;;;;;;;0.10;0.10;;;;;;;3.14;100.00;100113.69;4966626;28;20057;-78
2021/01/17 02:53:10;;;;;;;0.10;0.10;;;;;;;3.12;100.00;100113.34;4966504;28;20315;-78
2021/01/17 02:56:18;;;;;;;0.15;0.15;;;;;;;3.07;100.00;100112.59;4968295;28;20779;-79
2021/01/17 02:59:27;;;;;;;0.10;0.10;;;;;;;3.00;100.00;100109.97;4965723;28;20290;-78
2021/01/17 03:02:33;;;;;;;0.10;0.10;;;;;;;3.00;100.00;100106.44;4968038;28;20057;-79
2021/01/17 03:05:40;;;;;;;0.10;0.10;;;;;;;2.98;100.00;100112.38;4967330;28;20162;-78
2021/01/17 03:08:43;;;;;;;0.10;0.10;;;;;;;3.03;100.00;100133.88;4967433;28;20337;-78
2021/01/17 03:11:47;;;;;;;0.17;0.17;;;;;;;3.08;100.00;100149.94;4967657;28;20602;-78
2021/01/17 03:14:52;;;;;;;0.10;0.10;;;;;;;3.11;100.00;100139.28;4966576;28;20084;-78
2021/01/17 03:17:56;;;;;;;0.10;0.10;;;;;;;3.06;100.00;100116.56;4967699;28;20053;-78
2021/01/17 03:21:00;;;;;;;0.10;0.10;;;;;;;2.97;100.00;100113.56;4965999;28;20397;-78
2021/01/17 03:24:04;;;;;;;0.13;0.13;;;;;;;2.89;100.00;100123.13;4966299;28;20056;-78
2021/01/17 03:27:07;;;;;;;0.10;0.10;;;;;;;2.85;100.00;100127.13;4973602;28;20280;-78
2021/01/17 03:30:11;;;;;;;0.10;0.10;;;;;;;2.80;100.00;100122.06;4986167;28;20076;-78
2021/01/17 03:33:15;;;;;;;0.10;0.10;;;;;;;2.71;100.00;100116.31;4986805;28;20068;-79
2021/01/17 03:36:19;;;;;;;0.10;0.10;;;;;;;2.63;100.00;100120.38;4971223;28;20072;-78
2021/01/17 03:39:23;;;;;;;0.10;0.00;;;;;;;2.59;100.00;100130.66;4985424;28;20056;-78
2021/01/17 03:42:26;;;;;;;0.10;0.10;;;;;;;2.58;100.00;100124.38;4973487;28;20421;-80
2021/01/17 03:45:30;;;;;;;0.10;0.10;;;;;;;2.50;100.00;100133.91;4986940;28;20360;-78
2021/01/17 03:48:33;;;;;;;0.10;0.10;;;;;;;2.36;100.00;100138.84;4986009;28;20217;-78
2021/01/17 03:51:37;;;;;;;0.10;0.10;;;;;;;2.26;100.00;100135.81;4985464;28;20057;-78
2021/01/17 03:54:41;;;;;;;0.20;0.20;;;;;;;2.18;100.00;100133.56;4985945;28;20704;-78
2021/01/17 03:57:44;;;;;;;0.10;0.10;;;;;;;2.08;100.00;100142.72;4984801;28;20056;-79
2021/01/17 04:00:48;;;;;;;0.30;0.30;;;;;;;1.98;100.00;100162.84;4989631;28;20485;-78
2021/01/17 04:03:56;;;;;;;0.10;0.10;;;;;;;1.91;100.00;100157.41;4989096;28;21253;-80
2021/01/17 04:06:59;;;;;;;0.20;0.20;;;;;;;1.85;100.00;100165.34;4977060;28;20053;-78
2021/01/17 04:10:04;;;;;;;0.10;0.10;;;;;;;1.77;100.00;100163.88;4950750;28;20502;-79
2021/01/17 04:13:07;;;;;;;0.13;0.13;;;;;;;1.82;100.00;100170.88;4950273;28;20057;-79
2021/01/17 04:16:11;;;;;;;0.20;0.20;;;;;;;1.75;100.00;100159.97;4950707;28;20756;-78
2021/01/17 04:19:15;;;;;;;0.10;0.10;;;;;;;1.69;100.00;100162.38;4950099;28;20248;-78
2021/01/17 04:22:18;;;;;;;0.10;0.10;;;;;;;1.77;100.00;100174.06;4945139;28;20286;-79
2021/01/17 04:25:22;;;;;;;0.20;0.20;;;;;;;1.71;100.00;100173.72;4921803;28;20534;-79
2021/01/17 04:28:26;;;;;;;0.20;0.20;;;;;;;1.65;100.00;100177.31;4931348;28;20050;-79
2021/01/17 04:31:48;;;;;;;0.20;0.20;;;;;;;1.64;100.00;100189.50;4933944;28;21134;-80
2021/01/17 04:34:52;;;;;;;0.10;0.10;;;;;;;1.60;100.00;100210.72;4931208;28;20078;-80
2021/01/17 04:37:59;;;;;;;0.10;0.10;;;;;;;1.54;100.00;100204.88;4932101;28;20050;-78
2021/01/17 04:41:04;;;;;;;0.20;0.20;;;;;;;1.58;100.00;100191.13;4931467;28;20935;-79
2021/01/17 04:44:10;;;;;;;0.22;0.22;;;;;;;1.60;100.00;100166.78;4932125;28;20224;-79
2021/01/17 04:47:13;;;;;;;0.20;0.20;;;;;;;1.68;100.00;100165.53;4943210;28;20810;-79
2021/01/17 04:50:17;;;;;;;0.10;0.10;;;;;;;1.83;100.00;100183.41;4930831;28;21212;-79
2021/01/17 04:53:22;;;;;;;0.13;0.13;;;;;;;1.84;100.00;100180.25;4929683;28;20756;-79
2021/01/17 04:56:37;;;;;;;0.10;0.10;;;;;;;1.95;100.00;100191.91;4930997;28;20818;-79
2021/01/17 05:00:03;;;;;;;0.10;0.10;;;;;;;1.99;100.00;100191.88;4929171;28;20054;-79
2021/01/17 05:03:28;;;;;;;0.10;0.10;;;;;;;2.00;100.00;100182.44;4932366;28;20443;-79
2021/01/17 05:06:37;;;;;;;0.20;0.20;;;;;;;1.98;100.00;100169.13;4929365;28;20925;-79
2021/01/17 05:09:48;;;;;;;0.10;0.10;;;;;;;1.96;100.00;100192.69;4944389;28;20182;-80
2021/01/17 05:12:53;;;;;;;0.20;0.20;;;;;;;1.86;100.00;100196.34;4933786;28;20138;-79
2021/01/17 05:15:58;;;;;;;0.30;0.30;;;;;;;1.82;100.00;100184.63;4945450;28;21142;-79
2021/01/17 05:19:02;;;;;;;0.20;0.20;;;;;;;1.84;100.00;100193.97;4934708;28;21353;-79
2021/01/17 05:22:05;;;;;;;0.10;0.10;;;;;;;1.84;100.00;100195.97;4933648;28;20234;-79
2021/01/17 05:25:10;;;;;;;0.17;0.17;;;;;;;1.87;100.00;100189.63;4934511;28;20057;-79
2021/01/17 05:28:13;;;;;;;0.20;0.20;;;;;;;1.87;100.00;100195.13;4933321;28;20411;-79
2021/01/17 05:31:23;;;;;;;0.10;0.10;;;;;;;1.89;100.00;100199.03;4933118;28;20058;-79
2021/01/17 05:34:28;;;;;;;0.10;0.10;;;;;;;1.96;100.00;100204.47;4936250;28;20076;-79
2021/01/17 05:37:32;;;;;;;0.20;0.20;;;;;;;1.93;100.00;100209.97;4934938;28;20058;-80
2021/01/17 05:40:35;;;;;;;0.13;0.13;;;;;;;1.86;100.00;100210.84;4932818;28;20496;-81
2021/01/17 05:43:46;;;;;;;0.17;0.17;;;;;;;1.81;100.00;100207.75;4932330;28;20070;-79
2021/01/17 05:47:06;;;;;;;0.10;0.10;;;;;;;1.79;100.00;100213.66;4934102;28;20054;-79
2021/01/17 05:50:12;;;;;;;0.20;0.20;;;;;;;1.71;100.00;100214.13;4934998;28;20053;-81
2021/01/17 05:53:16;;;;;;;0.20;0.20;;;;;;;1.64;100.00;100214.97;4933238;28;20073;-80
2021/01/17 05:56:20;;;;;;;0.20;0.20;;;;;;;1.56;100.00;100223.69;4932102;28;20049;-79
2021/01/17 05:59:36;;;;;;;0.10;0.10;;;;;;;1.49;100.00;100219.78;4941902;28;20050;-79
2021/01/17 06:02:41;;;;;;;0.10;0.10;;;;;;;1.54;100.00;100230.34;4936101;28;20062;-80
2021/01/17 06:05:47;;;;;;;0.20;0.20;;;;;;;1.70;100.00;100237.28;4925115;28;20057;-78
2021/01/17 06:08:55;;;;;;;0.20;0.20;;;;;;;1.73;100.00;100247.44;4920302;28;20077;-78
2021/01/17 06:11:59;;;;;;;0.20;0.20;;;;;;;1.70;100.00;100245.50;4933292;28;20077;-78
2021/01/17 06:15:10;;;;;;;0.20;0.20;;;;;;;1.72;100.00;100256.84;4933917;28;20177;-79
2021/01/17 06:18:19;;;;;;;0.15;0.15;;;;;;;1.62;100.00;100255.00;4935474;28;20050;-78
2021/01/17 06:21:27;;;;;;;0.10;0.10;;;;;;;1.64;100.00;100269.09;4932092;28;20679;-79
2021/01/17 06:24:39;;;;;;;0.10;0.10;;;;;;;1.80;100.00;100285.81;4941103;28;20181;-78
2021/01/17 06:27:43;;;;;;;;;;;;;;;1.94;100.00;100291.19;4933766;28;20151;-78
2021/01/17 06:30:54;;;;;;;0.20;0.20;;;;;;;2.07;100.00;100301.25;4944628;28;20270;-79
2021/01/17 06:34:09;;;;;;;0.10;0.10;;;;;;;2.24;100.00;100302.25;4934046;28;20275;-78
2021/01/17 06:37:14;;;;;;;0.20;0.20;;;;;;;2.27;100.00;100310.47;4941611;28;21100;-78
2021/01/17 06:40:32;;;;;;;0.20;0.20;;;;;;;2.36;100.00;100311.97;4942203;28;20045;-79
2021/01/17 06:43:41;;;;;;;0.20;0.20;;;;;;;2.38;100.00;100301.34;4933863;28;20046;-78
2021/01/17 06:46:46;;;;;;;0.17;0.17;;;;;;;2.36;100.00;100318.22;4935174;28;20428;-79
2021/01/17 06:49:52;;;;;;;0.10;0.10;;;;;;;2.26;100.00;100316.38;4942902;28;20094;-79
2021/01/17 06:52:55;;;;;;;0.25;0.25;;;;;;;2.13;100.00;100324.34;4943946;28;20062;-79
2021/01/17 06:56:16;;;;;;;0.28;0.28;;;;;;;2.01;100.00;100315.84;4933401;28;20284;-79
2021/01/17 06:59:28;;;;;;;0.20;0.20;;;;;;;2.01;100.00;100332.31;4931678;28;20058;-81
2021/01/17 07:02:37;;;;;;;0.20;0.20;;;;;;;1.96;100.00;100335.50;4933531;28;20081;-78
2021/01/17 07:06:01;;;;;;;0.10;0.10;;;;;;;2.01;100.00;100341.34;4932130;28;20935;-78
2021/01/17 07:09:12;;;;;;;0.20;0.20;;;;;;;2.11;100.00;100359.69;4931077;28;20165;-78
2021/01/17 07:12:41;;;;;;;0.20;0.20;;;;;;;2.25;100.00;100358.78;4932130;28;20272;-78
2021/01/17 07:15:44;;;;;;;0.20;0.20;;;;;;;2.29;100.00;100370.53;4933301;28;21546;-77
2021/01/17 07:18:52;;;;;;;0.20;0.20;;;;;;;2.33;100.00;100376.75;4932140;28;20948;-76
2021/01/17 07:21:56;;;;;;;0.20;0.20;;;;;;;2.41;100.00;100381.00;4930357;28;20159;-76
2021/01/17 07:25:00;;;;;;;0.20;0.20;;;;;;;2.45;100.00;100373.50;4931124;28;20159;-77
2021/01/17 07:28:18;;;;;;;0.20;0.20;;;;;;;2.48;100.00;100389.19;4930504;28;20798;-77
2021/01/17 07:31:30;;;;;;;0.15;0.15;;;;;;;2.48;100.00;100386.44;4932373;28;20066;-78
2021/01/17 07:34:50;;;;;;;0.10;0.10;;;;;;;2.51;100.00;100393.88;4933307;28;20134;-77
2021/01/17 07:37:55;;;;;;;0.20;0.20;;;;;;;2.51;100.00;100396.63;4932690;28;20061;-77
2021/01/17 07:41:06;;;;;;;0.17;0.17;;;;;;;2.50;100.00;100391.50;4936272;28;20050;-77
2021/01/17 07:44:16;;;;;;;0.10;0.10;;;;;;;2.47;100.00;100403.34;4930837;28;20257;-79
2021/01/17 07:47:28;;;;;;;0.20;0.20;;;;;;;2.41;100.00;100411.22;4928958;28;20357;-78
2021/01/17 07:50:37;;;;;;;0.20;0.20;;;;;;;2.39;100.00;100419.09;4938448;28;20073;-79
2021/01/17 07:53:55;;;;;;;0.10;0.10;;;;;;;2.40;100.00;100426.16;4928842;28;20671;-78
2021/01/17 07:57:08;;;;;;;0.10;0.10;;;;;;;2.45;100.00;100428.47;4927984;28;20616;-78
2021/01/17 08:00:14;;;;;;;0.15;0.15;;;;;;;2.51;100.00;100432.34;4929128;28;20443;-79
2021/01/17 08:03:25;;;;;;;0.10;0.10;;;;;;;2.53;100.00;100432.72;4927276;28;20078;-79
2021/01/17 08:06:34;;;;;;;0.20;0.20;;;;;;;2.59;100.00;100431.09;4932079;28;20058;-78
2021/01/17 08:09:47;;;;;;;0.22;0.22;;;;;;;2.61;100.00;100445.22;4966447;28;20053;-78
2021/01/17 08:12:52;;;;;;;0.20;0.20;;;;;;;2.72;100.00;100453.34;4953762;28;21071;-78
2021/01/17 08:16:14;;;;;;;0.10;0.10;;;;;;;2.76;100.00;100460.38;4967511;28;20065;-77
2021/01/17 08:19:40;;;;;;;0.20;0.20;;;;;;;2.80;100.00;100477.63;4965868;28;20188;-79
2021/01/17 08:22:44;;;;;;;0.20;0.20;;;;;;;2.81;100.00;100486.66;4970770;28;20065;-79
2021/01/17 08:25:55;;;;;;;0.10;0.10;;;;;;;2.84;100.00;100478.38;4973819;28;20762;-80
2021/01/17 08:29:02;;;;;;;0.20;0.20;;;;;;;2.91;100.00;100483.81;4986523;28;20072;-78
2021/01/17 08:32:35;;;;;;;0.10;0.10;;;;;;;2.93;100.00;100492.44;4987129;28;20053;-77
2021/01/17 08:35:38;;;;;;;0.10;0.10;;;;;;;2.97;100.00;100498.66;4971464;28;20294;-79
2021/01/17 08:38:42;;;;;;;0.10;0.10;;;;;;;3.00;100.00;100503.38;4975045;28;20068;-79
2021/01/17 08:41:46;;;;;;;0.20;0.20;;;;;;;3.01;100.00;100510.41;4980905;28;20707;-79
2021/01/17 08:44:49;;;;;;;0.10;0.10;;;;;;;3.08;100.00;100521.34;4957811;28;20053;-77
2021/01/17 08:48:01;;;;;;;0.20;0.20;;;;;;;3.17;100.00;100514.59;4962249;28;20061;-78
2021/01/17 08:51:11;;;;;;;0.10;0.10;;;;;;;3.23;100.00;100518.47;4970738;28;21245;-78
2021/01/17 08:54:27;;;;;;;0.10;0.10;;;;;;;3.26;100.00;100526.69;4970386;28;20133;-77
2021/01/17 08:57:49;;;;;;;0.10;0.10;;;;;;;3.36;100.00;100533.25;4967159;28;21179;-77
2021/01/17 09:00:53;;;;;;;0.10;0.10;;;;;;;3.40;100.00;100536.75;4971459;28;20293;-79
2021/01/17 09:04:00;;;;;;;0.10;0.10;;;;;;;3.41;100.00;100532.81;4970647;28;20626;-76
2021/01/17 09:07:05;;;;;;;0.10;0.08;;;;;;;3.43;100.00;100533.16;4980614;28;20732;-79
2021/01/17 09:10:14;;;;;;;0.10;0.10;;;;;;;3.46;100.00;100540.63;4968581;28;20053;-77
2021/01/17 09:13:18;;;;;;;0.10;0.10;;;;;;;3.47;100.00;100542.16;4966878;28;20387;-78
2021/01/17 09:16:22;;;;;;;0.10;0.00;;;;;;;3.50;100.00;100563.38;4959126;28;20053;-78
2021/01/17 09:19:36;;;;;;;0.10;0.10;;;;;;;3.52;100.00;100572.00;4970482;28;20077;-80
2021/01/17 09:22:42;;;;;;;0.10;0.10;;;;;;;3.51;100.00;100568.47;4969646;28;20048;-76
2021/01/17 09:25:47;;;;;;;0.10;0.10;;;;;;;3.54;100.00;100573.16;4955764;28;20086;-77
2021/01/17 09:28:51;;;;;;;0.10;0.10;;;;;;;3.56;100.00;100570.78;4968990;28;20189;-77
2021/01/17 09:32:06;;;;;;;0.10;0.10;;;;;;;3.57;100.00;100579.84;4989401;28;20072;-78
2021/01/17 09:35:10;;;;;;;0.20;0.20;;;;;;;3.58;100.00;100581.38;4989205;28;20254;-79
2021/01/17 09:38:17;;;;;;;0.10;0.10;;;;;;;3.58;100.00;100587.69;4989634;28;20582;-78
2021/01/17 09:41:25;;;;;;;0.10;0.10;;;;;;;3.62;100.00;100595.88;4988160;28;20374;-77
2021/01/17 09:44:31;;;;;;;0.10;0.10;;;;;;;3.68;100.00;100591.50;4971479;28;20057;-77
2021/01/17 09:47:36;;;;;;;0.10;0.10;;;;;;;3.73;100.00;100593.81;4970968;28;20068;-76
2021/01/17 09:50:40;;;;;;;0.10;0.10;;;;;;;3.79;100.00;100592.16;4968696;28;20179;-78
2021/01/17 09:53:46;;;;;;;0.10;0.10;;;;;;;3.85;100.00;100604.31;4968666;28;20069;-78
2021/01/17 09:56:49;;;;;;;0.10;0.10;;;;;;;3.98;100.00;100610.84;4969060;28;20540;-78
2021/01/17 09:59:54;;;;;;;0.10;0.10;;;;;;;4.07;100.00;100608.34;4967964;28;20081;-78
2021/01/17 10:03:06;;;;;;;0.10;0.10;;;;;;;4.10;100.00;100612.25;4970565;28;20076;-77
2021/01/17 10:06:09;;;;;;;0.10;0.10;;;;;;;4.11;100.00;100608.31;4968585;28;20242;-78
2021/01/17 10:09:21;;;;;;;0.10;0.10;;;;;;;4.16;100.00;100614.13;4968257;28;21072;-79
2021/01/17 10:12:25;;;;;;;0.10;0.10;;;;;;;4.19;100.00;100616.06;4967816;28;20267;-77
2021/01/17 10:15:28;;;;;;;0.10;0.10;;;;;;;4.28;100.00;100630.13;4970396;28;20072;-77
2021/01/17 10:18:32;;;;;;;0.10;0.00;;;;;;;4.34;100.00;100642.25;4968432;28;20521;-78
2021/01/17 10:21:39;;;;;;;0.10;0.10;;;;;;;4.39;100.00;100647.31;4969721;28;20056;-77
2021/01/17 10:24:42;;;;;;;0.10;0.10;;;;;;;4.42;100.00;100657.50;4975854;28;20073;-79
2021/01/17 10:27:47;;;;;;;0.10;0.10;;;;;;;4.45;100.00;100656.69;4990607;28;20171;-79
2021/01/17 10:30:56;;;;;;;0.10;0.10;;;;;;;4.46;100.00;100661.00;4986860;28;20064;-79
2021/01/17 10:34:00;;;;;;;0.10;0.10;;;;;;;4.46;100.00;100657.47;4987592;28;20053;-79
2021/01/17 10:37:07;;;;;;;0.00;0.00;;;;;;;4.51;100.00;100665.28;4990148;28;20584;-77
2021/01/17 10:40:11;;;;;;;0.10;0.10;;;;;;;4.57;100.00;100658.09;4988528;28;20320;-78
2021/01/17 10:43:26;;;;;;;0.20;0.20;;;;;;;4.67;100.00;100656.38;4974341;28;20250;-77
2021/01/17 10:46:35;;;;;;;0.10;0.10;;;;;;;4.68;100.00;100657.97;4980695;28;20085;-80
2021/01/17 10:49:45;;;;;;;0.00;0.00;;;;;;;4.87;100.00;100665.56;4980028;28;21167;-78
2021/01/17 10:53:23;;;;;;;0.10;0.00;;;;;;;5.00;100.00;100685.88;4978751;28;20085;-78
2021/01/17 10:56:27;;;;;;;0.10;0.10;;;;;;;5.06;100.00;100684.19;4969221;28;20296;-79
2021/01/17 10:59:33;;;;;;;0.10;0.00;;;;;;;5.02;100.00;100678.72;4969094;28;21082;-78
2021/01/17 11:02:37;;;;;;;0.10;0.00;;;;;;;5.05;100.00;100680.63;4981815;28;20065;-79
2021/01/17 11:05:41;;;;;;;0.10;0.10;;;;;;;5.11;100.00;100675.44;4966177;28;20301;-79
2021/01/17 11:08:56;;;;;;;0.10;0.00;;;;;;;5.14;100.00;100677.34;4976674;28;21283;-78
2021/01/17 11:12:00;;;;;;;0.10;0.10;;;;;;;5.23;100.00;100666.56;4966512;28;20052;-80
2021/01/17 11:15:23;;;;;;;0.10;0.00;;;;;;;5.30;100.00;100671.97;4979810;28;20336;-79
2021/01/17 11:18:26;;;;;;;0.10;0.10;;;;;;;5.33;100.00;100676.63;4966478;28;20053;-79
2021/01/17 11:21:30;;;;;;;0.10;0.00;;;;;;;5.31;100.00;100673.53;4976127;28;20061;-79
2021/01/17 11:24:39;;;;;;;0.10;0.10;;;;;;;5.26;100.00;100671.25;4986724;28;20235;-80
2021/01/17 11:27:46;;;;;;;0.10;0.10;;;;;;;5.22;100.00;100671.28;4985073;28;20630;-79
2021/01/17 11:30:49;;;;;;;0.10;0.10;;;;;;;5.23;100.00;100667.34;4988253;28;21134;-79
2021/01/17 11:33:54;;;;;;;0.10;0.00;;;;;;;5.29;100.00;100670.41;4987642;28;20084;-79
2021/01/17 11:36:58;;;;;;;0.00;0.00;;;;;;;5.36;100.00;100664.75;4984920;28;20080;-81
2021/01/17 11:40:07;;;;;;;0.10;0.00;;;;;;;5.38;100.00;100667.88;4987123;28;20686;-79
2021/01/17 11:43:12;;;;;;;0.10;0.00;;;;;;;5.42;100.00;100668.59;4987554;28;20080;-79
2021/01/17 11:46:16;;;;;;;0.10;0.10;;;;;;;5.40;100.00;100671.00;4988043;28;21022;-79
2021/01/17 11:49:24;;;;;;;0.10;0.00;;;;;;;5.35;100.00;100677.78;4986075;28;20509;-78
2021/01/17 11:52:28;;;;;;;0.10;0.00;;;;;;;5.35;100.00;100669.50;4987534;28;20044;-78
2021/01/17 11:55:32;;;;;;;0.10;0.10;;;;;;;5.34;100.00;100672.69;4978299;28;21212;-77
2021/01/17 11:58:40;;;;;;;0.10;0.10;;;;;;;5.33;100.00;100671.13;4955652;28;20064;-79
2021/01/17 12:01:44;;;;;;;0.10;0.10;;;;;;;5.33;100.00;100676.63;4969907;28;21115;-78
2021/01/17 12:05:00;;;;;;;0.10;0.00;;;;;;;5.34;100.00;100683.75;4979942;28;20048;-78
2021/01/17 12:08:03;;;;;;;0.10;0.10;;;;;;;5.34;100.00;100683.75;4975960;28;20860;-78
2021/01/17 12:11:07;;;;;;;0.10;0.10;;;;;;;5.37;100.00;100686.44;4967365;28;20506;-77
2021/01/17 12:14:24;;;;;;;0.10;0.10;;;;;;;5.41;100.00;100694.69;4955084;28;20683;-79
2021/01/17 12:17:28;;;;;;;0.10;0.00;;;;;;;5.38;100.00;100695.50;4966786;28;20211;-77
2021/01/17 12:20:31;;;;;;;0.10;0.10;;;;;;;5.36;100.00;100692.38;4967826;28;20069;-77
2021/01/17 12:23:34;;;;;;;0.10;0.00;;;;;;;5.38;100.00;100689.97;4967593;28;20069;-78
2021/01/17 12:26:40;;;;;;;0.10;0.00;;;;;;;5.39;100.00;100686.03;4967330;28;20064;-79
2021/01/17 12:29:44;;;;;;;0.10;0.10;;;;;;;5.38;100.00;100679.72;4967007;28;20073;-78
2021/01/17 12:32:48;;;;;;;0.10;0.10;;;;;;;5.38;100.00;100682.47;4969395;28;20267;-80
2021/01/17 12:35:51;;;;;;;0.10;0.10;;;;;;;5.39;100.00;100681.25;4968020;28;20057;-77
2021/01/17 12:38:57;;;;;;;0.10;0.10;;;;;;;5.36;100.00;100692.38;4967986;28;20057;-79
2021/01/17 12:42:01;;;;;;;0.10;0.10;;;;;;;5.34;100.00;100689.25;4968502;28;20226;-78
2021/01/17 12:45:06;;;;;;;0.10;0.10;;;;;;;5.29;100.00;100686.97;4965916;28;20080;-77
2021/01/17 12:48:10;;;;;;;0.10;0.10;;;;;;;5.28;100.00;100682.66;4969150;28;20053;-77
2021/01/17 12:51:13;;;;;;;0.10;0.10;;;;;;;5.26;100.00;100677.53;4965272;28;20049;-78
2021/01/17 12:54:17;;;;;;;0.00;0.00;;;;;;;5.28;100.00;100679.91;4966723;28;21084;-78
2021/01/17 12:57:20;;;;;;;0.10;0.10;;;;;;;5.31;100.00;100668.00;4966591;28;20049;-77
2021/01/17 13:00:25;;;;;;;0.10;0.10;;;;;;;5.34;100.00;100667.16;4969702;28;21026;-78
2021/01/17 13:03:29;;;;;;;0.10;0.00;;;;;;;5.37;100.00;100666.34;4954618;28;20458;-77
2021/01/17 13:06:32;;;;;;;0.10;0.10;;;;;;;5.43;100.00;100664.66;4967898;28;20172;-77
2021/01/17 13:09:36;;;;;;;0.10;0.00;;;;;;;5.48;100.00;100666.91;4967972;28;20081;-78
2021/01/17 13:12:40;;;;;;;0.10;0.10;;;;;;;5.49;100.00;100662.19;4966674;28;20243;-77
2021/01/17 13:15:49;;;;;;;0.10;0.10;;;;;;;5.47;100.00;100668.13;4953800;28;20901;-77
2021/01/17 13:18:53;;;;;;;0.10;0.10;;;;;;;5.51;100.00;100671.59;4965473;28;20929;-77
2021/01/17 13:21:56;;;;;;;0.10;0.00;;;;;;;5.52;100.00;100678.72;4964775;28;20049;-77
2021/01/17 13:25:01;;;;;;;0.10;0.10;;;;;;;5.50;100.00;100674.81;4966377;28;20634;-75
2021/01/17 13:28:06;;;;;;;0.08;0.08;;;;;;;5.52;100.00;100678.72;4967584;28;20351;-76
2021/01/17 13:31:09;;;;;;;0.10;0.10;;;;;;;5.53;100.00;100673.94;4970771;28;21065;-76
2021/01/17 13:34:13;;;;;;;0.10;0.10;;;;;;;5.51;100.00;100671.59;4968880;28;20345;-78
2021/01/17 13:37:17;;;;;;;0.10;0.00;;;;;;;5.51;100.00;100671.59;4973187;28;20057;-78
2021/01/17 13:40:21;;;;;;;0.10;0.10;;;;;;;5.49;100.00;100670.47;4969038;28;20718;-77
2021/01/17 13:43:24;;;;;;;0.10;0.10;;;;;;;5.48;100.00;100675.19;4973276;28;20072;-79
2021/01/17 13:46:28;;;;;;;0.10;0.10;;;;;;;5.46;100.00;100674.84;4970436;28;20052;-78
2021/01/17 13:49:32;;;;;;;0.10;0.10;;;;;;;5.42;100.00;100668.59;4981340;28;20064;-78
2021/01/17 13:52:42;;;;;;;0.10;0.00;;;;;;;5.38;100.00;100673.41;4978135;28;20115;-77
2021/01/17 13:55:46;;;;;;;0.10;0.10;;;;;;;5.39;100.00;100669.47;4973475;28;20696;-74
2021/01/17 13:58:49;;;;;;;0.10;0.00;;;;;;;5.41;100.00;100672.59;4976749;28;20123;-76
2021/01/17 14:01:53;;;;;;;0.10;0.10;;;;;;;5.44;100.00;100671.72;4975861;28;21040;-74
2021/01/17 14:04:57;;;;;;;0.10;0.10;;;;;;;5.45;100.00;100667.78;4974363;28;20541;-84
2021/01/17 14:08:01;;;;;;;0.10;0.10;;;;;;;5.44;100.00;100665.41;4964953;28;20049;-84
2021/01/17 14:11:05;;;;;;;0.10;0.10;;;;;;;5.42;100.00;100673.34;4961679;28;20073;-84
2021/01/17 14:14:08;;;;;;;0.10;0.10;;;;;;;5.38;100.00;100673.41;4958983;28;20049;-80
2021/01/17 14:17:12;;;;;;;0.10;0.10;;;;;;;5.35;100.00;100675.03;4971421;28;20073;-78
2021/01/17 14:20:19;;;;;;;0.03;0.03;;;;;;;5.37;100.00;100689.19;4961268;28;20045;-79
2021/01/17 14:23:23;;;;;;;0.00;0.00;;;;;;;5.36;100.00;100682.13;4966310;28;20719;-79
2021/01/17 14:26:29;;;;;;;0.10;0.10;;;;;;;5.39;100.00;100686.03;4971329;28;20826;-76
2021/01/17 14:29:32;;;;;;;0.00;0.00;;;;;;;5.42;100.00;100684.38;4953785;28;20081;-77